sensor_id;sensor_type;location;lat;lon;timestamp;pressure;altitude;pressure_sealevel;temperature;humidity
65157;BME280;52745;49.794;18.258;2023-04-20T00:02:21;-16068.81;;;4.92;100.00
65157;BME280;52745;49.794;18.258;2023-04-20T00:04:48;-16067.84;;;4.88;100.00
65157;BME280;52745;49.794;18.258;2023-04-20T00:07:14;-16068.53;;;4.91;100.00
65157;BME280;52745;49.794;18.258;2023-04-20T00:09:41;-16069.63;;;4.95;100.00
65157;BME280;52745;49.794;18.258;2023-04-20T00:12:08;-16069.63;;;4.95;100.00
65157;BME280;52745;49.794;18.258;2023-04-20T00:14:35;-16068.53;;;4.91;100.00
65157;BME280;52745;49.794;18.258;2023-04-20T00:17:02;-16067.03;;;4.85;100.00
65157;BME280;52745;49.794;18.258;2023-04-20T00:19:29;-16066.75;;;4.84;100.00
65157;BME280;52745;49.794;18.258;2023-04-20T00:21:59;-16067.84;;;4.88;100.00
65157;BME280;52745;49.794;18.258;2023-04-20T00:24:25;-16068.25;;;4.90;100.00
65157;BME280;52745;49.794;18.258;2023-04-20T00:26:52;-16069.50;;;4.94;100.00
65157;BME280;52745;49.794;18.258;2023-04-20T00:29:20;-16068.53;;;4.91;100.00
65157;BME280;52745;49.794;18.258;2023-04-20T00:31:47;-16069.34;;;4.94;100.00
65157;BME280;52745;49.794;18.258;2023-04-20T00:34:14;-16070.72;;;4.99;100.00
65157;BME280;52745;49.794;18.258;2023-04-20T00:36:41;-16068.25;;;4.90;100.00
65157;BME280;52745;49.794;18.258;2023-04-20T00:39:08;-16067.44;;;4.87;100.00
65157;BME280;52745;49.794;18.258;2023-04-20T00:41:36;-16068.81;;;4.92;100.00
65157;BME280;52745;49.794;18.258;2023-04-20T00:44:02;-16070.72;;;4.99;100.00
65157;BME280;52745;49.794;18.258;2023-04-20T00:46:29;-16068.13;;;4.89;100.00
65157;BME280;52745;49.794;18.258;2023-04-20T00:48:57;-16069.91;;;4.96;100.00
65157;BME280;52745;49.794;18.258;2023-04-20T00:51:24;-16070.84;;;5.00;100.00
65157;BME280;52745;49.794;18.258;2023-04-20T00:53:51;-16072.63;;;5.06;100.00
65157;BME280;52745;49.794;18.258;2023-04-20T00:56:18;-16075.50;;;5.17;100.00
65157;BME280;52745;49.794;18.258;2023-04-20T00:58:45;-16078.66;;;5.29;100.00
65157;BME280;52745;49.794;18.258;2023-04-20T01:01:12;-16082.22;;;5.42;100.00
65157;BME280;52745;49.794;18.258;2023-04-20T01:03:43;-16082.22;;;5.42;100.00
65157;BME280;52745;49.794;18.258;2023-04-20T01:06:12;-16083.56;;;5.47;100.00
65157;BME280;52745;49.794;18.258;2023-04-20T01:08:49;-16084.66;;;5.51;100.00
65157;BME280;52745;49.794;18.258;2023-04-20T01:11:17;-16088.22;;;5.65;100.00
65157;BME280;52745;49.794;18.258;2023-04-20T01:13:43;-16089.03;;;5.68;100.00
65157;BME280;52745;49.794;18.258;2023-04-20T01:16:11;-16090.81;;;5.74;100.00
65157;BME280;52745;49.794;18.258;2023-04-20T01:18:45;-16089.59;;;5.70;100.00
65157;BME280;52745;49.794;18.258;2023-04-20T01:21:14;-16090.13;;;5.72;100.00
65157;BME280;52745;49.794;18.258;2023-04-20T01:23:42;-16089.31;;;5.69;100.00
65157;BME280;52745;49.794;18.258;2023-04-20T01:26:11;-16089.31;;;5.69;100.00
65157;BME280;52745;49.794;18.258;2023-04-20T01:28:38;-16088.75;;;5.67;100.00
65157;BME280;52745;49.794;18.258;2023-04-20T01:31:06;-16088.50;;;5.66;100.00
65157;BME280;52745;49.794;18.258;2023-04-20T01:33:33;-16086.44;;;5.58;100.00
65157;BME280;52745;49.794;18.258;2023-04-20T01:36:00;-16083.56;;;5.47;100.00
65157;BME280;52745;49.794;18.258;2023-04-20T01:38:29;-16081.25;;;5.38;100.00
65157;BME280;52745;49.794;18.258;2023-04-20T01:41:04;-16080.69;;;5.36;100.00
65157;BME280;52745;49.794;18.258;2023-04-20T01:43:31;-16081.81;;;5.41;100.00
65157;BME280;52745;49.794;18.258;2023-04-20T01:45:59;-16080.84;;;5.37;100.00
65157;BME280;52745;49.794;18.258;2023-04-20T01:48:26;-16080.56;;;5.36;100.00
65157;BME280;52745;49.794;18.258;2023-04-20T01:50:53;-16083.31;;;5.46;100.00
65157;BME280;52745;49.794;18.258;2023-04-20T01:53:20;-16083.03;;;5.45;100.00
65157;BME280;52745;49.794;18.258;2023-04-20T01:55:48;-16081.13;;;5.38;100.00
65157;BME280;52745;49.794;18.258;2023-04-20T01:58:15;-16080.56;;;5.36;100.00
65157;BME280;52745;49.794;18.258;2023-04-20T02:00:41;-16078.94;;;5.30;100.00
65157;BME280;52745;49.794;18.258;2023-04-20T02:03:08;-16079.47;;;5.32;100.00
65157;BME280;52745;49.794;18.258;2023-04-20T02:05:35;-16079.47;;;5.32;100.00
65157;BME280;52745;49.794;18.258;2023-04-20T02:08:01;-16081.13;;;5.38;100.00
65157;BME280;52745;49.794;18.258;2023-04-20T02:10:28;-16080.28;;;5.35;100.00
65157;BME280;52745;49.794;18.258;2023-04-20T02:12:55;-16079.75;;;5.33;100.00
65157;BME280;52745;49.794;18.258;2023-04-20T02:15:22;-16081.38;;;5.39;100.00
65157;BME280;52745;49.794;18.258;2023-04-20T02:17:48;-16082.63;;;5.44;100.00
65157;BME280;52745;49.794;18.258;2023-04-20T02:20:18;-16082.75;;;5.44;100.00
65157;BME280;52745;49.794;18.258;2023-04-20T02:22:45;-16082.75;;;5.44;100.00
65157;BME280;52745;49.794;18.258;2023-04-20T02:25:12;-16086.03;;;5.56;100.00
65157;BME280;52745;49.794;18.258;2023-04-20T02:27:39;-16087.25;;;5.61;100.00
65157;BME280;52745;49.794;18.258;2023-04-20T02:30:07;-16087.41;;;5.62;100.00
65157;BME280;52745;49.794;18.258;2023-04-20T02:32:34;-16090.53;;;5.73;100.00
65157;BME280;52745;49.794;18.258;2023-04-20T02:35:02;-16089.88;;;5.71;100.00
65157;BME280;52745;49.794;18.258;2023-04-20T02:37:31;-16086.84;;;5.59;100.00
65157;BME280;52745;49.794;18.258;2023-04-20T02:39:58;-16086.59;;;5.58;100.00
65157;BME280;52745;49.794;18.258;2023-04-20T02:42:26;-16086.72;;;5.59;100.00
65157;BME280;52745;49.794;18.258;2023-04-20T02:44:55;-16084.41;;;5.50;100.00
65157;BME280;52745;49.794;18.258;2023-04-20T02:47:21;-16085.34;;;5.54;100.00
65157;BME280;52745;49.794;18.258;2023-04-20T02:49:50;-16087.41;;;5.62;100.00
65157;BME280;52745;49.794;18.258;2023-04-20T02:52:16;-16088.63;;;5.66;100.00
65157;BME280;52745;49.794;18.258;2023-04-20T02:54:43;-16090.28;;;5.72;100.00
65157;BME280;52745;49.794;18.258;2023-04-20T02:57:12;-16090.69;;;5.74;100.00
65157;BME280;52745;49.794;18.258;2023-04-20T02:59:39;-16092.31;;;5.80;100.00
65157;BME280;52745;49.794;18.258;2023-04-20T03:02:14;-16090.13;;;5.72;100.00
65157;BME280;52745;49.794;18.258;2023-04-20T03:04:42;-16087.53;;;5.62;100.00
65157;BME280;52745;49.794;18.258;2023-04-20T03:07:20;-16087.81;;;5.63;100.00
65157;BME280;52745;49.794;18.258;2023-04-20T03:09:48;-16088.75;;;5.67;100.00
65157;BME280;52745;49.794;18.258;2023-04-20T03:12:24;-16087.25;;;5.61;100.00
65157;BME280;52745;49.794;18.258;2023-04-20T03:15:10;-16086.84;;;5.59;100.00
65157;BME280;52745;49.794;18.258;2023-04-20T03:17:56;-16087.81;;;5.63;100.00
65157;BME280;52745;49.794;18.258;2023-04-20T03:20:23;-16088.63;;;5.66;100.00
65157;BME280;52745;49.794;18.258;2023-04-20T03:22:50;-16089.88;;;5.71;100.00
65157;BME280;52745;49.794;18.258;2023-04-20T03:25:18;-16092.31;;;5.80;100.00
65157;BME280;52745;49.794;18.258;2023-04-20T03:27:52;-16092.59;;;5.81;100.00
65157;BME280;52745;49.794;18.258;2023-04-20T03:30:20;-16091.78;;;5.78;100.00
65157;BME280;52745;49.794;18.258;2023-04-20T03:32:51;-16090.13;;;5.72;100.00
65157;BME280;52745;49.794;18.258;2023-04-20T03:35:18;-16089.03;;;5.68;100.00
65157;BME280;52745;49.794;18.258;2023-04-20T03:37:46;-16087.13;;;5.60;100.00
65157;BME280;52745;49.794;18.258;2023-04-20T03:40:13;-16087.25;;;5.61;100.00
65157;BME280;52745;49.794;18.258;2023-04-20T03:42:40;-16087.53;;;5.62;100.00
65157;BME280;52745;49.794;18.258;2023-04-20T03:45:07;-16088.63;;;5.66;100.00
65157;BME280;52745;49.794;18.258;2023-04-20T03:47:34;-16088.50;;;5.66;100.00
65157;BME280;52745;49.794;18.258;2023-04-20T03:50:01;-16084.94;;;5.52;100.00
65157;BME280;52745;49.794;18.258;2023-04-20T03:52:27;-16082.47;;;5.43;100.00
65157;BME280;52745;49.794;18.258;2023-04-20T03:54:54;-16080.03;;;5.34;100.00
65157;BME280;52745;49.794;18.258;2023-04-20T03:57:21;-16079.59;;;5.32;100.00
65157;BME280;52745;49.794;18.258;2023-04-20T03:59:48;-16079.06;;;5.30;100.00
65157;BME280;52745;49.794;18.258;2023-04-20T04:02:18;-16074.56;;;5.13;100.00
65157;BME280;52745;49.794;18.258;2023-04-20T04:04:48;-16075.09;;;5.15;100.00
65157;BME280;52745;49.794;18.258;2023-04-20T04:07:14;-16074.56;;;5.13;100.00
65157;BME280;52745;49.794;18.258;2023-04-20T04:09:42;-16073.59;;;5.10;100.00
65157;BME280;52745;49.794;18.258;2023-04-20T04:12:10;-16076.88;;;5.22;100.00
65157;BME280;52745;49.794;18.258;2023-04-20T04:14:38;-16077.84;;;5.26;100.00
65157;BME280;52745;49.794;18.258;2023-04-20T04:17:04;-16077.56;;;5.25;100.00
65157;BME280;52745;49.794;18.258;2023-04-20T04:19:34;-16075.38;;;5.16;100.00
65157;BME280;52745;49.794;18.258;2023-04-20T04:22:02;-16076.06;;;5.19;100.00
65157;BME280;52745;49.794;18.258;2023-04-20T04:24:34;-16077.16;;;5.23;100.00
65157;BME280;52745;49.794;18.258;2023-04-20T04:27:07;-16076.88;;;5.22;100.00
65157;BME280;52745;49.794;18.258;2023-04-20T04:29:40;-16077.69;;;5.25;100.00
65157;BME280;52745;49.794;18.258;2023-04-20T04:32:11;-16079.75;;;5.33;100.00
65157;BME280;52745;49.794;18.258;2023-04-20T04:34:39;-16081.94;;;5.41;100.00
65157;BME280;52745;49.794;18.258;2023-04-20T04:37:10;-16080.69;;;5.36;100.00
65157;BME280;52745;49.794;18.258;2023-04-20T04:39:50;-16080.56;;;5.36;100.00
65157;BME280;52745;49.794;18.258;2023-04-20T04:42:24;-16080.16;;;5.34;100.00
65157;BME280;52745;49.794;18.258;2023-04-20T04:44:51;-16080.69;;;5.36;100.00
65157;BME280;52745;49.794;18.258;2023-04-20T04:47:26;-16081.25;;;5.38;100.00
65157;BME280;52745;49.794;18.258;2023-04-20T04:49:55;-16083.72;;;5.48;100.00
65157;BME280;52745;49.794;18.258;2023-04-20T04:52:21;-16085.22;;;5.53;100.00
65157;BME280;52745;49.794;18.258;2023-04-20T04:54:49;-16083.03;;;5.45;100.00
65157;BME280;52745;49.794;18.258;2023-04-20T04:57:16;-16082.22;;;5.42;100.00
65157;BME280;52745;49.794;18.258;2023-04-20T04:59:43;-16082.22;;;5.42;100.00
65157;BME280;52745;49.794;18.258;2023-04-20T05:02:09;-16081.13;;;5.38;100.00
65157;BME280;52745;49.794;18.258;2023-04-20T05:04:36;-16082.91;;;5.45;100.00
65157;BME280;52745;49.794;18.258;2023-04-20T05:07:02;-16083.97;;;5.49;100.00
65157;BME280;52745;49.794;18.258;2023-04-20T05:09:29;-16085.75;;;5.55;100.00
65157;BME280;52745;49.794;18.258;2023-04-20T05:12:02;-16086.84;;;5.59;100.00
65157;BME280;52745;49.794;18.258;2023-04-20T05:14:30;-16088.22;;;5.65;100.00
65157;BME280;52745;49.794;18.258;2023-04-20T05:16:58;-16087.94;;;5.64;100.00
65157;BME280;52745;49.794;18.258;2023-04-20T05:19:25;-16089.88;;;5.71;100.00
65157;BME280;52745;49.794;18.258;2023-04-20T05:21:52;-16090.53;;;5.73;100.00
65157;BME280;52745;49.794;18.258;2023-04-20T05:24:18;-16091.50;;;5.77;100.00
65157;BME280;52745;49.794;18.258;2023-04-20T05:26:45;-16093.41;;;5.84;100.00
65157;BME280;52745;49.794;18.258;2023-04-20T05:29:13;-16093.16;;;5.83;100.00
65157;BME280;52745;49.794;18.258;2023-04-20T05:31:39;-16091.50;;;5.77;100.00
65157;BME280;52745;49.794;18.258;2023-04-20T05:34:06;-16091.38;;;5.76;100.00
65157;BME280;52745;49.794;18.258;2023-04-20T05:36:32;-16092.72;;;5.81;100.00
65157;BME280;52745;49.794;18.258;2023-04-20T05:38:59;-16097.38;;;5.99;100.00
65157;BME280;52745;49.794;18.258;2023-04-20T05:41:26;-16095.75;;;5.93;100.00
65157;BME280;52745;49.794;18.258;2023-04-20T05:43:54;-16099.16;;;6.06;100.00
65157;BME280;52745;49.794;18.258;2023-04-20T05:46:20;-16099.84;;;6.08;100.00
65157;BME280;52745;49.794;18.258;2023-04-20T05:48:47;-16104.09;;;6.24;100.00
65157;BME280;52745;49.794;18.258;2023-04-20T05:51:15;-16104.34;;;6.25;100.00
65157;BME280;52745;49.794;18.258;2023-04-20T05:53:41;-16101.91;;;6.16;100.00
65157;BME280;52745;49.794;18.258;2023-04-20T05:56:08;-16104.34;;;6.25;100.00
65157;BME280;52745;49.794;18.258;2023-04-20T05:58:35;-16110.50;;;6.48;100.00
65157;BME280;52745;49.794;18.258;2023-04-20T06:01:03;-16114.75;;;6.64;100.00
65157;BME280;52745;49.794;18.258;2023-04-20T06:03:30;-16117.75;;;6.75;100.00
65157;BME280;52745;49.794;18.258;2023-04-20T06:05:56;-16118.03;;;6.76;100.00
65157;BME280;52745;49.794;18.258;2023-04-20T06:08:23;-16120.06;;;6.84;100.00
65157;BME280;52745;49.794;18.258;2023-04-20T06:10:53;-16121.44;;;6.89;100.00
65157;BME280;52745;49.794;18.258;2023-04-20T06:13:24;-16119.53;;;6.82;100.00
65157;BME280;52745;49.794;18.258;2023-04-20T06:15:50;-16121.31;;;6.89;100.00
65157;BME280;52745;49.794;18.258;2023-04-20T06:18:18;-16124.31;;;7.00;100.00
65157;BME280;52745;49.794;18.258;2023-04-20T06:20:45;-16126.34;;;7.08;100.00
65157;BME280;52745;49.794;18.258;2023-04-20T06:23:12;-16125.94;;;7.06;100.00
65157;BME280;52745;49.794;18.258;2023-04-20T06:25:39;-16130.72;;;7.24;100.00
65157;BME280;52745;49.794;18.258;2023-04-20T06:28:06;-16129.50;;;7.19;100.00
65157;BME280;52745;49.794;18.258;2023-04-20T06:30:33;-16131.69;;;7.28;100.00
65157;BME280;52745;49.794;18.258;2023-04-20T06:33:00;-16132.38;;;7.30;100.00
65157;BME280;52745;49.794;18.258;2023-04-20T06:35:27;-16130.88;;;7.24;100.00
65157;BME280;52745;49.794;18.258;2023-04-20T06:37:54;-16126.63;;;7.09;100.00
65157;BME280;52745;49.794;18.258;2023-04-20T06:40:25;-16121.72;;;6.90;100.00
65157;BME280;52745;49.794;18.258;2023-04-20T06:42:52;-16122.66;;;6.94;100.00
65157;BME280;52745;49.794;18.258;2023-04-20T06:45:19;-16126.63;;;7.09;100.00
65157;BME280;52745;49.794;18.258;2023-04-20T06:47:46;-16128.41;;;7.15;100.00
65157;BME280;52745;49.794;18.258;2023-04-20T06:50:12;-16130.44;;;7.23;100.00
65157;BME280;52745;49.794;18.258;2023-04-20T06:52:39;-16130.88;;;7.24;100.00
65157;BME280;52745;49.794;18.258;2023-04-20T06:55:07;-16130.59;;;7.23;100.00
65157;BME280;52745;49.794;18.258;2023-04-20T06:57:34;-16132.91;;;7.32;100.00
65157;BME280;52745;49.794;18.258;2023-04-20T07:00:00;-16133.31;;;7.34;100.00
65157;BME280;52745;49.794;18.258;2023-04-20T07:02:27;-16137.97;;;7.51;100.00
65157;BME280;52745;49.794;18.258;2023-04-20T07:04:59;-16139.59;;;7.57;100.00
65157;BME280;52745;49.794;18.258;2023-04-20T07:07:27;-16141.09;;;7.63;100.00
65157;BME280;52745;49.794;18.258;2023-04-20T07:09:53;-16141.50;;;7.64;100.00
65157;BME280;52745;49.794;18.258;2023-04-20T07:12:20;-16137.56;;;7.50;100.00
65157;BME280;52745;49.794;18.258;2023-04-20T07:14:47;-16137.13;;;7.48;100.00
65157;BME280;52745;49.794;18.258;2023-04-20T07:17:14;-16140.28;;;7.60;100.00
65157;BME280;52745;49.794;18.258;2023-04-20T07:19:40;-16145.34;;;7.79;100.00
65157;BME280;52745;49.794;18.258;2023-04-20T07:22:07;-16147.25;;;7.86;100.00
65157;BME280;52745;49.794;18.258;2023-04-20T07:24:33;-16144.94;;;7.77;100.00
65157;BME280;52745;49.794;18.258;2023-04-20T07:27:00;-16146.69;;;7.84;100.00
65157;BME280;52745;49.794;18.258;2023-04-20T07:29:28;-16150.25;;;7.97;100.00
65157;BME280;52745;49.794;18.258;2023-04-20T07:31:55;-16149.56;;;7.95;100.00
65157;BME280;52745;49.794;18.258;2023-04-20T07:34:21;-16153.25;;;8.08;100.00
65157;BME280;52745;49.794;18.258;2023-04-20T07:36:48;-16152.84;;;8.07;100.00
65157;BME280;52745;49.794;18.258;2023-04-20T07:39:14;-16157.22;;;8.23;100.00
65157;BME280;52745;49.794;18.258;2023-04-20T07:41:41;-16162.41;;;8.43;100.00
65157;BME280;52745;49.794;18.258;2023-04-20T07:44:09;-16165.69;;;8.55;100.00
65157;BME280;52745;49.794;18.258;2023-04-20T07:46:36;-16168.13;;;8.64;100.00
65157;BME280;52745;49.794;18.258;2023-04-20T07:49:03;-16174.81;;;8.89;100.00
65157;BME280;52745;49.794;18.258;2023-04-20T07:51:29;-16178.25;;;9.02;100.00
65157;BME280;52745;49.794;18.258;2023-04-20T07:53:57;-16182.19;;;9.17;100.00
65157;BME280;52745;49.794;18.258;2023-04-20T07:56:24;-16188.47;;;9.41;100.00
65157;BME280;52745;49.794;18.258;2023-04-20T07:58:51;-16192.69;;;9.57;100.00
65157;BME280;52745;49.794;18.258;2023-04-20T08:01:22;-16197.47;;;9.74;100.00
65157;BME280;52745;49.794;18.258;2023-04-20T08:03:49;-16198.84;;;9.80;100.00
65157;BME280;52745;49.794;18.258;2023-04-20T08:06:16;-16200.75;;;9.87;100.00
65157;BME280;52745;49.794;18.258;2023-04-20T08:08:42;-16206.22;;;10.07;100.00
65157;BME280;52745;49.794;18.258;2023-04-20T08:11:09;-16207.03;;;10.10;100.00
65157;BME280;52745;49.794;18.258;2023-04-20T08:13:35;-16209.75;;;10.21;100.00
65157;BME280;52745;49.794;18.258;2023-04-20T08:16:03;-16223.25;;;10.71;100.00
65157;BME280;52745;49.794;18.258;2023-04-20T08:18:29;-16228.44;;;10.91;97.15
65157;BME280;52745;49.794;18.258;2023-04-20T08:20:56;-16234.28;;;11.13;97.34
65157;BME280;52745;49.794;18.258;2023-04-20T08:23:25;-16271.09;;;12.51;92.74
65157;BME280;52745;49.794;18.258;2023-04-20T08:25:59;-16270.25;;;12.48;87.71
65157;BME280;52745;49.794;18.258;2023-04-20T08:28:30;-16255.56;;;11.93;89.42
65157;BME280;52745;49.794;18.258;2023-04-20T08:30:57;-16240.44;;;11.36;92.51
65157;BME280;52745;49.794;18.258;2023-04-20T08:33:23;-16235.66;;;11.18;94.18
65157;BME280;52745;49.794;18.258;2023-04-20T08:35:50;-16239.06;;;11.31;93.62
65157;BME280;52745;49.794;18.258;2023-04-20T08:38:17;-16240.44;;;11.36;93.52
65157;BME280;52745;49.794;18.258;2023-04-20T08:40:44;-16242.19;;;11.43;94.33
65157;BME280;52745;49.794;18.258;2023-04-20T08:43:11;-16243.16;;;11.46;93.91
65157;BME280;52745;49.794;18.258;2023-04-20T08:45:39;-16244.91;;;11.53;91.22
65157;BME280;52745;49.794;18.258;2023-04-20T08:48:10;-16250.38;;;11.73;92.62
65157;BME280;52745;49.794;18.258;2023-04-20T08:50:39;-16244.50;;;11.51;88.90
65157;BME280;52745;49.794;18.258;2023-04-20T08:53:06;-16247.78;;;11.64;90.35
65157;BME280;52745;49.794;18.258;2023-04-20T08:55:35;-16261.00;;;12.13;89.15
65157;BME280;52745;49.794;18.258;2023-04-20T08:58:02;-16286.06;;;13.08;84.09
65157;BME280;52745;49.794;18.258;2023-04-20T09:00:28;-16328.25;;;14.66;79.74
65157;BME280;52745;49.794;18.258;2023-04-20T09:02:56;-16329.88;;;14.73;78.08
65157;BME280;52745;49.794;18.258;2023-04-20T09:05:28;-16311.91;;;14.05;77.00
65157;BME280;52745;49.794;18.258;2023-04-20T09:07:58;-16307.56;;;13.89;78.20
65157;BME280;52745;49.794;18.258;2023-04-20T09:10:26;-16304.84;;;13.78;79.15
65157;BME280;52745;49.794;18.258;2023-04-20T09:13:04;-16280.19;;;12.86;82.26
65157;BME280;52745;49.794;18.258;2023-04-20T09:15:31;-16271.91;;;12.54;83.08
65157;BME280;52745;49.794;18.258;2023-04-20T09:17:57;-16267.00;;;12.36;83.43
65157;BME280;52745;49.794;18.258;2023-04-20T09:20:32;-16266.03;;;12.32;84.64
65157;BME280;52745;49.794;18.258;2023-04-20T09:23:15;-16261.28;;;12.14;85.96
65157;BME280;52745;49.794;18.258;2023-04-20T09:25:46;-16266.19;;;12.33;86.04
65157;BME280;52745;49.794;18.258;2023-04-20T09:28:13;-16269.59;;;12.46;85.70
65157;BME280;52745;49.794;18.258;2023-04-20T09:30:45;-16305.94;;;13.82;81.48
65157;BME280;52745;49.794;18.258;2023-04-20T09:33:12;-16307.97;;;13.90;80.40
65157;BME280;52745;49.794;18.258;2023-04-20T09:35:41;-16327.97;;;14.65;76.87
65157;BME280;52745;49.794;18.258;2023-04-20T09:38:10;-16332.06;;;14.81;74.48
65157;BME280;52745;49.794;18.258;2023-04-20T09:40:40;-16344.69;;;15.28;73.81
65157;BME280;52745;49.794;18.258;2023-04-20T09:43:18;-16340.63;;;15.13;72.29
65157;BME280;52745;49.794;18.258;2023-04-20T09:45:45;-16339.25;;;15.08;72.39
65157;BME280;52745;49.794;18.258;2023-04-20T09:48:12;-16340.88;;;15.14;71.83
65157;BME280;52745;49.794;18.258;2023-04-20T09:50:45;-16343.19;;;15.23;70.56
65157;BME280;52745;49.794;18.258;2023-04-20T09:53:13;-16350.53;;;15.50;71.54
65157;BME280;52745;49.794;18.258;2023-04-20T09:55:50;-16347.00;;;15.37;71.13
65157;BME280;52745;49.794;18.258;2023-04-20T09:58:18;-16330.69;;;14.76;68.94
65157;BME280;52745;49.794;18.258;2023-04-20T10:00:48;-16344.97;;;15.29;69.07
65157;BME280;52745;49.794;18.258;2023-04-20T10:03:18;-16368.22;;;16.17;67.67
65157;BME280;52745;49.794;18.258;2023-04-20T10:05:45;-16340.34;;;15.12;69.17
65157;BME280;52745;49.794;18.258;2023-04-20T10:08:12;-16337.50;;;15.01;70.20
65157;BME280;52745;49.794;18.258;2023-04-20T10:10:47;-16318.72;;;14.31;73.67
65157;BME280;52745;49.794;18.258;2023-04-20T10:13:14;-16323.06;;;14.47;74.17
65157;BME280;52745;49.794;18.258;2023-04-20T10:15:43;-16322.94;;;14.46;72.78
65157;BME280;52745;49.794;18.258;2023-04-20T10:18:22;-16377.72;;;16.53;66.92
65157;BME280;52745;49.794;18.258;2023-04-20T10:20:51;-16441.78;;;18.95;58.21
65157;BME280;52745;49.794;18.258;2023-04-20T10:23:28;-16459.94;;;19.63;56.51
65157;BME280;52745;49.794;18.258;2023-04-20T10:25:58;-16447.47;;;19.16;55.60
65157;BME280;52745;49.794;18.258;2023-04-20T10:28:39;-16478.66;;;20.34;53.30
65157;BME280;52745;49.794;18.258;2023-04-20T10:31:07;-16516.84;;;21.79;49.02
65157;BME280;52745;49.794;18.258;2023-04-20T10:33:48;-16527.94;;;22.21;46.62
65157;BME280;52745;49.794;18.258;2023-04-20T10:36:23;-16526.84;;;22.17;46.04
65157;BME280;52745;49.794;18.258;2023-04-20T10:38:50;-16520.91;;;21.94;44.69
65157;BME280;52745;49.794;18.258;2023-04-20T10:41:18;-16493.16;;;20.89;47.84
65157;BME280;52745;49.794;18.258;2023-04-20T10:43:45;-16452.63;;;19.36;50.84
65157;BME280;52745;49.794;18.258;2023-04-20T10:46:32;-16452.63;;;19.36;50.36
65157;BME280;52745;49.794;18.258;2023-04-20T10:49:00;-16421.72;;;18.19;52.97
65157;BME280;52745;49.794;18.258;2023-04-20T10:51:29;-16403.78;;;17.51;54.90
65157;BME280;52745;49.794;18.258;2023-04-20T10:54:06;-16467.28;;;19.91;53.22
65157;BME280;52745;49.794;18.258;2023-04-20T10:56:44;-16464.56;;;19.81;52.09
65157;BME280;52745;49.794;18.258;2023-04-20T10:59:17;-16474.88;;;20.20;49.31
65157;BME280;52745;49.794;18.258;2023-04-20T11:01:44;-16450.47;;;19.28;52.30
65157;BME280;52745;49.794;18.258;2023-04-20T11:04:11;-16435.00;;;18.69;52.50
65157;BME280;52745;49.794;18.258;2023-04-20T11:06:40;-16401.06;;;17.41;57.61
65157;BME280;52745;49.794;18.258;2023-04-20T11:09:21;-16401.63;;;17.43;59.46
65157;BME280;52745;49.794;18.258;2023-04-20T11:12:05;-16423.59;;;18.26;55.60
65157;BME280;52745;49.794;18.258;2023-04-20T11:14:34;-16417.91;;;18.05;55.72
65157;BME280;52745;49.794;18.258;2023-04-20T11:17:03;-16420.91;;;18.16;54.54
65157;BME280;52745;49.794;18.258;2023-04-20T11:19:35;-16395.38;;;17.20;56.92
65157;BME280;52745;49.794;18.258;2023-04-20T11:22:03;-16368.47;;;16.18;60.86
65157;BME280;52745;49.794;18.258;2023-04-20T11:24:32;-16348.50;;;15.43;63.93
65157;BME280;52745;49.794;18.258;2023-04-20T11:27:01;-16358.03;;;15.79;63.73
65157;BME280;52745;49.794;18.258;2023-04-20T11:29:34;-16359.66;;;15.85;66.35
65157;BME280;52745;49.794;18.258;2023-04-20T11:32:04;-16351.91;;;15.56;65.79
65157;BME280;52745;49.794;18.258;2023-04-20T11:34:32;-16344.16;;;15.26;65.55
65157;BME280;52745;49.794;18.258;2023-04-20T11:37:04;-16344.84;;;15.29;66.93
65157;BME280;52745;49.794;18.258;2023-04-20T11:39:32;-16348.63;;;15.43;65.27
65157;BME280;52745;49.794;18.258;2023-04-20T11:41:59;-16347.00;;;15.37;65.94
65157;BME280;52745;49.794;18.258;2023-04-20T11:44:25;-16352.31;;;15.57;65.60
65157;BME280;52745;49.794;18.258;2023-04-20T11:46:53;-16354.06;;;15.64;66.16
65157;BME280;52745;49.794;18.258;2023-04-20T11:49:24;-16349.72;;;15.47;65.63
65157;BME280;52745;49.794;18.258;2023-04-20T11:51:51;-16355.56;;;15.69;66.29
65157;BME280;52745;49.794;18.258;2023-04-20T11:54:17;-16358.44;;;15.80;65.26
65157;BME280;52745;49.794;18.258;2023-04-20T11:56:45;-16349.03;;;15.45;66.42
65157;BME280;52745;49.794;18.258;2023-04-20T11:59:11;-16334.78;;;14.91;68.25
65157;BME280;52745;49.794;18.258;2023-04-20T12:01:45;-16334.38;;;14.89;66.92
65157;BME280;52745;49.794;18.258;2023-04-20T12:04:12;-16333.97;;;14.88;67.40
65157;BME280;52745;49.794;18.258;2023-04-20T12:06:40;-16334.22;;;14.89;69.49
65157;BME280;52745;49.794;18.258;2023-04-20T12:09:07;-16334.22;;;14.89;69.09
65157;BME280;52745;49.794;18.258;2023-04-20T12:11:34;-16330.41;;;14.75;69.81
65157;BME280;52745;49.794;18.258;2023-04-20T12:14:01;-16325.25;;;14.55;70.36
65157;BME280;52745;49.794;18.258;2023-04-20T12:16:28;-16323.75;;;14.49;69.66
65157;BME280;52745;49.794;18.258;2023-04-20T12:18:54;-16326.06;;;14.58;69.93
65157;BME280;52745;49.794;18.258;2023-04-20T12:21:22;-16328.38;;;14.67;70.23
65157;BME280;52745;49.794;18.258;2023-04-20T12:23:48;-16332.31;;;14.82;67.07
65157;BME280;52745;49.794;18.258;2023-04-20T12:26:16;-16334.50;;;14.90;66.68
65157;BME280;52745;49.794;18.258;2023-04-20T12:28:43;-16333.13;;;14.85;66.65
65157;BME280;52745;49.794;18.258;2023-04-20T12:31:10;-16340.75;;;15.14;65.06
65157;BME280;52745;49.794;18.258;2023-04-20T12:33:37;-16343.19;;;15.23;65.13
65157;BME280;52745;49.794;18.258;2023-04-20T12:36:04;-16343.47;;;15.24;65.55
65157;BME280;52745;49.794;18.258;2023-04-20T12:38:31;-16345.91;;;15.33;64.47
65157;BME280;52745;49.794;18.258;2023-04-20T12:40:57;-16352.72;;;15.59;64.61
65157;BME280;52745;49.794;18.258;2023-04-20T12:43:24;-16352.03;;;15.56;62.96
65157;BME280;52745;49.794;18.258;2023-04-20T12:45:51;-16349.59;;;15.47;62.02
65157;BME280;52745;49.794;18.258;2023-04-20T12:48:17;-16345.78;;;15.32;63.92